sensor_id;sensor_type;location;lat;lon;timestamp;P1;durP1;ratioP1;P2;durP2;ratioP2
71253;SDS011;59019;47.638;18.966;2022-10-18T00:01:55;11.77;;;6.13;;
71253;SDS011;59019;47.638;18.966;2022-10-18T00:04:21;12.07;;;5.73;;
71253;SDS011;59019;47.638;18.966;2022-10-18T00:06:46;13.30;;;5.70;;
71253;SDS011;59019;47.638;18.966;2022-10-18T00:09:12;10.80;;;5.80;;
71253;SDS011;59019;47.638;18.966;2022-10-18T00:11:38;12.53;;;5.50;;
71253;SDS011;59019;47.638;18.966;2022-10-18T00:14:03;10.20;;;5.35;;
71253;SDS011;59019;47.638;18.966;2022-10-18T00:16:29;10.07;;;5.43;;
71253;SDS011;59019;47.638;18.966;2022-10-18T00:18:55;11.10;;;5.95;;
71253;SDS011;59019;47.638;18.966;2022-10-18T00:21:21;12.03;;;5.73;;
71253;SDS011;59019;47.638;18.966;2022-10-18T00:23:47;13.15;;;6.07;;
71253;SDS011;59019;47.638;18.966;2022-10-18T00:26:18;11.40;;;6.30;;
71253;SDS011;59019;47.638;18.966;2022-10-18T00:28:46;11.57;;;5.47;;
71253;SDS011;59019;47.638;18.966;2022-10-18T00:31:17;12.55;;;5.90;;
71253;SDS011;59019;47.638;18.966;2022-10-18T00:33:49;11.70;;;5.97;;
71253;SDS011;59019;47.638;18.966;2022-10-18T00:36:16;10.50;;;5.60;;
71253;SDS011;59019;47.638;18.966;2022-10-18T00:38:42;10.05;;;5.30;;
71253;SDS011;59019;47.638;18.966;2022-10-18T00:41:09;14.05;;;5.63;;
71253;SDS011;59019;47.638;18.966;2022-10-18T00:43:52;11.00;;;6.03;;
71253;SDS011;59019;47.638;18.966;2022-10-18T00:46:19;13.15;;;6.25;;
71253;SDS011;59019;47.638;18.966;2022-10-18T00:48:45;13.57;;;5.93;;
71253;SDS011;59019;47.638;18.966;2022-10-18T00:51:11;12.43;;;6.27;;
71253;SDS011;59019;47.638;18.966;2022-10-18T00:53:37;14.13;;;6.40;;
71253;SDS011;59019;47.638;18.966;2022-10-18T00:56:04;12.27;;;5.97;;
71253;SDS011;59019;47.638;18.966;2022-10-18T00:58:30;14.13;;;6.03;;
71253;SDS011;59019;47.638;18.966;2022-10-18T01:00:56;12.33;;;5.80;;
71253;SDS011;59019;47.638;18.966;2022-10-18T01:03:21;10.40;;;5.50;;
71253;SDS011;59019;47.638;18.966;2022-10-18T01:05:47;13.43;;;6.03;;
71253;SDS011;59019;47.638;18.966;2022-10-18T01:10:57;10.40;;;5.45;;
71253;SDS011;59019;47.638;18.966;2022-10-18T01:22:23;11.68;;;5.72;;
71253;SDS011;59019;47.638;18.966;2022-10-18T01:25:02;11.68;;;5.65;;
71253;SDS011;59019;47.638;18.966;2022-10-18T01:27:43;10.65;;;5.70;;
71253;SDS011;59019;47.638;18.966;2022-10-18T01:32:53;12.23;;;6.07;;
71253;SDS011;59019;47.638;18.966;2022-10-18T01:35:28;12.73;;;6.20;;
71253;SDS011;59019;47.638;18.966;2022-10-18T01:37:58;9.88;;;5.50;;
71253;SDS011;59019;47.638;18.966;2022-10-18T01:40:27;11.68;;;6.13;;
71253;SDS011;59019;47.638;18.966;2022-10-18T01:42:54;12.82;;;6.60;;
71253;SDS011;59019;47.638;18.966;2022-10-18T01:45:20;14.10;;;6.67;;
71253;SDS011;59019;47.638;18.966;2022-10-18T01:47:48;11.98;;;6.90;;
71253;SDS011;59019;47.638;18.966;2022-10-18T01:50:15;11.63;;;6.47;;
71253;SDS011;59019;47.638;18.966;2022-10-18T01:52:53;11.97;;;6.30;;
71253;SDS011;59019;47.638;18.966;2022-10-18T01:55:19;11.40;;;5.82;;
71253;SDS011;59019;47.638;18.966;2022-10-18T01:58:02;11.03;;;5.80;;
71253;SDS011;59019;47.638;18.966;2022-10-18T02:00:36;10.77;;;5.82;;
71253;SDS011;59019;47.638;18.966;2022-10-18T02:08:24;11.90;;;6.20;;
71253;SDS011;59019;47.638;18.966;2022-10-18T02:10:59;10.85;;;5.97;;
71253;SDS011;59019;47.638;18.966;2022-10-18T02:13:35;12.73;;;6.47;;
71253;SDS011;59019;47.638;18.966;2022-10-18T02:16:12;14.63;;;6.40;;
71253;SDS011;59019;47.638;18.966;2022-10-18T02:18:42;14.10;;;6.43;;
71253;SDS011;59019;47.638;18.966;2022-10-18T02:21:11;12.73;;;6.38;;
71253;SDS011;59019;47.638;18.966;2022-10-18T02:23:40;12.70;;;6.63;;
71253;SDS011;59019;47.638;18.966;2022-10-18T02:26:07;14.77;;;6.97;;
71253;SDS011;59019;47.638;18.966;2022-10-18T02:28:34;13.57;;;6.93;;
71253;SDS011;59019;47.638;18.966;2022-10-18T02:33:56;13.13;;;6.93;;
71253;SDS011;59019;47.638;18.966;2022-10-18T02:36:44;14.00;;;6.73;;
71253;SDS011;59019;47.638;18.966;2022-10-18T02:39:15;12.63;;;7.10;;
71253;SDS011;59019;47.638;18.966;2022-10-18T02:41:44;12.93;;;6.88;;
71253;SDS011;59019;47.638;18.966;2022-10-18T02:44:11;13.65;;;6.88;;
71253;SDS011;59019;47.638;18.966;2022-10-18T02:46:37;13.37;;;6.97;;
71253;SDS011;59019;47.638;18.966;2022-10-18T02:49:03;13.40;;;7.05;;
71253;SDS011;59019;47.638;18.966;2022-10-18T02:51:29;14.47;;;6.83;;
71253;SDS011;59019;47.638;18.966;2022-10-18T02:53:54;13.65;;;6.57;;
71253;SDS011;59019;47.638;18.966;2022-10-18T02:56:20;15.00;;;6.90;;
71253;SDS011;59019;47.638;18.966;2022-10-18T02:58:46;12.83;;;6.73;;
71253;SDS011;59019;47.638;18.966;2022-10-18T03:01:11;15.57;;;7.20;;
71253;SDS011;59019;47.638;18.966;2022-10-18T03:03:37;12.97;;;6.80;;
71253;SDS011;59019;47.638;18.966;2022-10-18T03:06:02;13.13;;;6.47;;
71253;SDS011;59019;47.638;18.966;2022-10-18T03:08:28;14.23;;;6.73;;
71253;SDS011;59019;47.638;18.966;2022-10-18T03:10:54;12.40;;;6.57;;
71253;SDS011;59019;47.638;18.966;2022-10-18T03:13:20;11.80;;;6.63;;
71253;SDS011;59019;47.638;18.966;2022-10-18T03:15:46;11.57;;;6.15;;
71253;SDS011;59019;47.638;18.966;2022-10-18T03:18:12;10.57;;;5.70;;
71253;SDS011;59019;47.638;18.966;2022-10-18T03:20:38;12.80;;;6.57;;
71253;SDS011;59019;47.638;18.966;2022-10-18T03:23:04;12.48;;;5.93;;
71253;SDS011;59019;47.638;18.966;2022-10-18T03:25:31;11.27;;;6.03;;
71253;SDS011;59019;47.638;18.966;2022-10-18T03:27:57;12.40;;;6.57;;
71253;SDS011;59019;47.638;18.966;2022-10-18T03:30:23;13.20;;;6.23;;
71253;SDS011;59019;47.638;18.966;2022-10-18T03:32:48;12.53;;;6.40;;
71253;SDS011;59019;47.638;18.966;2022-10-18T03:35:14;11.55;;;6.00;;
71253;SDS011;59019;47.638;18.966;2022-10-18T03:37:40;13.45;;;6.43;;
71253;SDS011;59019;47.638;18.966;2022-10-18T03:40:06;13.57;;;6.13;;
71253;SDS011;59019;47.638;18.966;2022-10-18T03:42:32;16.77;;;6.55;;
71253;SDS011;59019;47.638;18.966;2022-10-18T03:44:57;12.17;;;6.30;;
71253;SDS011;59019;47.638;18.966;2022-10-18T03:47:23;13.63;;;6.67;;
71253;SDS011;59019;47.638;18.966;2022-10-18T03:49:48;15.40;;;7.03;;
71253;SDS011;59019;47.638;18.966;2022-10-18T03:52:13;13.13;;;6.72;;
71253;SDS011;59019;47.638;18.966;2022-10-18T03:54:39;13.07;;;6.27;;
71253;SDS011;59019;47.638;18.966;2022-10-18T03:57:04;13.23;;;6.80;;
71253;SDS011;59019;47.638;18.966;2022-10-18T03:59:30;15.63;;;7.40;;
71253;SDS011;59019;47.638;18.966;2022-10-18T04:01:56;16.57;;;7.00;;
71253;SDS011;59019;47.638;18.966;2022-10-18T04:04:22;12.38;;;6.43;;
71253;SDS011;59019;47.638;18.966;2022-10-18T04:06:48;15.40;;;6.60;;
71253;SDS011;59019;47.638;18.966;2022-10-18T04:09:13;16.53;;;7.47;;
71253;SDS011;59019;47.638;18.966;2022-10-18T04:11:39;16.73;;;7.78;;
71253;SDS011;59019;47.638;18.966;2022-10-18T04:14:05;14.27;;;6.40;;
71253;SDS011;59019;47.638;18.966;2022-10-18T04:16:30;14.50;;;7.00;;
71253;SDS011;59019;47.638;18.966;2022-10-18T04:18:56;13.48;;;6.90;;
71253;SDS011;59019;47.638;18.966;2022-10-18T04:21:21;16.87;;;7.07;;
71253;SDS011;59019;47.638;18.966;2022-10-18T04:23:47;13.17;;;6.70;;
71253;SDS011;59019;47.638;18.966;2022-10-18T04:26:13;14.85;;;6.63;;
71253;SDS011;59019;47.638;18.966;2022-10-18T04:28:40;13.23;;;6.40;;
71253;SDS011;59019;47.638;18.966;2022-10-18T04:31:07;13.77;;;7.05;;
71253;SDS011;59019;47.638;18.966;2022-10-18T04:33:33;12.13;;;6.47;;
71253;SDS011;59019;47.638;18.966;2022-10-18T04:35:59;11.33;;;6.13;;
71253;SDS011;59019;47.638;18.966;2022-10-18T04:38:24;12.50;;;6.00;;
71253;SDS011;59019;47.638;18.966;2022-10-18T04:40:50;14.50;;;6.25;;
71253;SDS011;59019;47.638;18.966;2022-10-18T04:43:16;12.63;;;6.70;;
71253;SDS011;59019;47.638;18.966;2022-10-18T04:45:43;14.30;;;6.63;;
71253;SDS011;59019;47.638;18.966;2022-10-18T04:48:10;13.53;;;6.60;;
71253;SDS011;59019;47.638;18.966;2022-10-18T04:50:35;13.48;;;6.45;;
71253;SDS011;59019;47.638;18.966;2022-10-18T04:53:01;15.30;;;6.60;;
71253;SDS011;59019;47.638;18.966;2022-10-18T04:55:26;13.93;;;6.30;;
71253;SDS011;59019;47.638;18.966;2022-10-18T04:57:52;11.38;;;6.47;;
71253;SDS011;59019;47.638;18.966;2022-10-18T05:00:17;15.93;;;7.53;;
71253;SDS011;59019;47.638;18.966;2022-10-18T05:02:44;14.10;;;6.55;;
71253;SDS011;59019;47.638;18.966;2022-10-18T05:05:09;15.07;;;6.93;;
71253;SDS011;59019;47.638;18.966;2022-10-18T05:07:35;16.52;;;7.63;;
71253;SDS011;59019;47.638;18.966;2022-10-18T05:10:02;13.57;;;7.20;;
71253;SDS011;59019;47.638;18.966;2022-10-18T05:12:28;13.40;;;7.10;;
71253;SDS011;59019;47.638;18.966;2022-10-18T05:14:54;15.40;;;7.30;;
71253;SDS011;59019;47.638;18.966;2022-10-18T05:17:19;14.30;;;6.80;;
71253;SDS011;59019;47.638;18.966;2022-10-18T05:19:45;13.23;;;6.83;;
71253;SDS011;59019;47.638;18.966;2022-10-18T05:22:10;13.07;;;6.40;;
71253;SDS011;59019;47.638;18.966;2022-10-18T05:24:36;15.18;;;6.43;;
71253;SDS011;59019;47.638;18.966;2022-10-18T05:27:01;15.13;;;6.75;;
71253;SDS011;59019;47.638;18.966;2022-10-18T05:29:27;14.27;;;7.00;;
71253;SDS011;59019;47.638;18.966;2022-10-18T05:31:52;15.33;;;7.07;;
71253;SDS011;59019;47.638;18.966;2022-10-18T05:34:18;14.98;;;7.43;;
71253;SDS011;59019;47.638;18.966;2022-10-18T05:36:44;17.43;;;7.60;;
71253;SDS011;59019;47.638;18.966;2022-10-18T05:39:11;14.10;;;6.60;;
71253;SDS011;59019;47.638;18.966;2022-10-18T05:41:36;15.45;;;6.38;;
71253;SDS011;59019;47.638;18.966;2022-10-18T05:44:02;15.73;;;6.40;;
71253;SDS011;59019;47.638;18.966;2022-10-18T05:46:29;19.42;;;8.57;;
71253;SDS011;59019;47.638;18.966;2022-10-18T05:48:54;25.10;;;8.57;;
71253;SDS011;59019;47.638;18.966;2022-10-18T05:51:20;15.50;;;7.45;;
71253;SDS011;59019;47.638;18.966;2022-10-18T05:53:46;18.30;;;7.10;;
71253;SDS011;59019;47.638;18.966;2022-10-18T05:56:11;15.27;;;7.22;;
71253;SDS011;59019;47.638;18.966;2022-10-18T05:58:38;15.47;;;7.27;;
71253;SDS011;59019;47.638;18.966;2022-10-18T06:01:05;15.18;;;7.35;;
71253;SDS011;59019;47.638;18.966;2022-10-18T06:03:31;16.38;;;7.55;;
71253;SDS011;59019;47.638;18.966;2022-10-18T06:06:07;13.43;;;6.63;;
71253;SDS011;59019;47.638;18.966;2022-10-18T06:08:37;14.97;;;7.13;;
71253;SDS011;59019;47.638;18.966;2022-10-18T06:11:07;14.80;;;7.43;;
71253;SDS011;59019;47.638;18.966;2022-10-18T06:13:32;12.15;;;6.63;;
71253;SDS011;59019;47.638;18.966;2022-10-18T06:15:58;14.23;;;6.50;;
71253;SDS011;59019;47.638;18.966;2022-10-18T06:18:23;14.40;;;6.93;;
71253;SDS011;59019;47.638;18.966;2022-10-18T06:20:54;12.87;;;6.37;;
71253;SDS011;59019;47.638;18.966;2022-10-18T06:23:22;14.05;;;6.88;;
71253;SDS011;59019;47.638;18.966;2022-10-18T06:25:47;14.90;;;7.27;;
71253;SDS011;59019;47.638;18.966;2022-10-18T06:28:12;14.17;;;6.90;;
71253;SDS011;59019;47.638;18.966;2022-10-18T06:30:38;14.43;;;7.43;;
71253;SDS011;59019;47.638;18.966;2022-10-18T06:33:04;15.70;;;7.97;;
71253;SDS011;59019;47.638;18.966;2022-10-18T06:35:29;14.40;;;7.43;;
71253;SDS011;59019;47.638;18.966;2022-10-18T06:37:54;12.82;;;7.00;;
71253;SDS011;59019;47.638;18.966;2022-10-18T06:40:21;14.87;;;7.03;;
71253;SDS011;59019;47.638;18.966;2022-10-18T06:42:47;12.98;;;7.68;;
71253;SDS011;59019;47.638;18.966;2022-10-18T06:45:12;14.07;;;7.00;;
71253;SDS011;59019;47.638;18.966;2022-10-18T06:47:39;14.52;;;6.70;;
71253;SDS011;59019;47.638;18.966;2022-10-18T06:50:05;13.37;;;7.33;;
71253;SDS011;59019;47.638;18.966;2022-10-18T06:52:31;13.57;;;6.57;;
71253;SDS011;59019;47.638;18.966;2022-10-18T06:54:56;13.73;;;7.37;;
71253;SDS011;59019;47.638;18.966;2022-10-18T06:57:22;14.10;;;7.30;;
71253;SDS011;59019;47.638;18.966;2022-10-18T06:59:47;16.55;;;7.65;;
71253;SDS011;59019;47.638;18.966;2022-10-18T07:02:14;16.88;;;7.82;;
71253;SDS011;59019;47.638;18.966;2022-10-18T07:04:43;17.27;;;7.97;;
71253;SDS011;59019;47.638;18.966;2022-10-18T07:07:09;13.70;;;7.40;;
71253;SDS011;59019;47.638;18.966;2022-10-18T07:09:35;14.60;;;7.93;;
71253;SDS011;59019;47.638;18.966;2022-10-18T07:12:00;15.23;;;8.10;;
71253;SDS011;59019;47.638;18.966;2022-10-18T07:14:26;17.83;;;8.70;;
71253;SDS011;59019;47.638;18.966;2022-10-18T07:16:51;15.20;;;8.87;;
71253;SDS011;59019;47.638;18.966;2022-10-18T07:19:17;18.00;;;9.75;;
71253;SDS011;59019;47.638;18.966;2022-10-18T07:21:43;15.10;;;8.33;;
71253;SDS011;59019;47.638;18.966;2022-10-18T07:24:08;16.97;;;9.53;;
71253;SDS011;59019;47.638;18.966;2022-10-18T07:26:34;18.07;;;8.67;;
71253;SDS011;59019;47.638;18.966;2022-10-18T07:29:03;17.02;;;9.38;;
71253;SDS011;59019;47.638;18.966;2022-10-18T07:31:33;21.10;;;10.52;;
71253;SDS011;59019;47.638;18.966;2022-10-18T07:34:00;21.33;;;10.68;;
71253;SDS011;59019;47.638;18.966;2022-10-18T07:36:27;17.55;;;9.32;;
71253;SDS011;59019;47.638;18.966;2022-10-18T07:38:53;18.10;;;9.47;;
71253;SDS011;59019;47.638;18.966;2022-10-18T07:41:18;18.23;;;9.43;;
71253;SDS011;59019;47.638;18.966;2022-10-18T07:43:46;17.42;;;9.10;;
71253;SDS011;59019;47.638;18.966;2022-10-18T07:46:13;18.38;;;9.32;;
71253;SDS011;59019;47.638;18.966;2022-10-18T07:48:39;17.63;;;9.82;;
71253;SDS011;59019;47.638;18.966;2022-10-18T07:51:05;17.83;;;9.83;;
71253;SDS011;59019;47.638;18.966;2022-10-18T07:53:31;20.77;;;9.32;;
71253;SDS011;59019;47.638;18.966;2022-10-18T07:56:02;20.92;;;10.73;;
71253;SDS011;59019;47.638;18.966;2022-10-18T07:58:30;19.85;;;9.95;;
71253;SDS011;59019;47.638;18.966;2022-10-18T08:00:57;16.87;;;8.67;;
71253;SDS011;59019;47.638;18.966;2022-10-18T08:03:26;15.88;;;9.02;;
71253;SDS011;59019;47.638;18.966;2022-10-18T08:05:52;18.63;;;10.20;;
71253;SDS011;59019;47.638;18.966;2022-10-18T08:08:20;14.75;;;9.13;;
71253;SDS011;59019;47.638;18.966;2022-10-18T08:10:47;15.68;;;8.38;;
71253;SDS011;59019;47.638;18.966;2022-10-18T08:13:12;17.10;;;9.18;;
71253;SDS011;59019;47.638;18.966;2022-10-18T08:15:38;16.90;;;9.13;;
71253;SDS011;59019;47.638;18.966;2022-10-18T08:18:03;16.37;;;9.23;;
71253;SDS011;59019;47.638;18.966;2022-10-18T08:20:29;15.57;;;8.27;;
71253;SDS011;59019;47.638;18.966;2022-10-18T08:22:56;15.35;;;8.57;;
71253;SDS011;59019;47.638;18.966;2022-10-18T08:25:21;16.93;;;9.70;;
71253;SDS011;59019;47.638;18.966;2022-10-18T08:27:47;18.80;;;9.77;;
71253;SDS011;59019;47.638;18.966;2022-10-18T08:30:12;19.23;;;9.93;;
71253;SDS011;59019;47.638;18.966;2022-10-18T08:32:38;15.15;;;9.32;;
71253;SDS011;59019;47.638;18.966;2022-10-18T08:35:04;13.77;;;9.00;;
71253;SDS011;59019;47.638;18.966;2022-10-18T08:37:31;15.37;;;9.07;;
71253;SDS011;59019;47.638;18.966;2022-10-18T08:39:56;19.52;;;9.77;;
71253;SDS011;59019;47.638;18.966;2022-10-18T08:42:25;16.33;;;9.82;;
71253;SDS011;59019;47.638;18.966;2022-10-18T08:44:59;17.37;;;10.00;;
71253;SDS011;59019;47.638;18.966;2022-10-18T08:47:30;17.05;;;9.98;;
71253;SDS011;59019;47.638;18.966;2022-10-18T08:50:11;18.67;;;10.50;;
71253;SDS011;59019;47.638;18.966;2022-10-18T08:52:52;17.48;;;9.45;;
71253;SDS011;59019;47.638;18.966;2022-10-18T08:55:25;15.93;;;9.38;;
71253;SDS011;59019;47.638;18.966;2022-10-18T08:58:00;18.57;;;10.60;;
71253;SDS011;59019;47.638;18.966;2022-10-18T09:00:28;16.63;;;9.52;;
71253;SDS011;59019;47.638;18.966;2022-10-18T09:03:02;17.95;;;9.77;;
71253;SDS011;59019;47.638;18.966;2022-10-18T09:16:43;16.10;;;9.32;;
71253;SDS011;59019;47.638;18.966;2022-10-18T09:22:13;13.55;;;8.35;;
71253;SDS011;59019;47.638;18.966;2022-10-18T09:24:55;15.93;;;8.83;;
71253;SDS011;59019;47.638;18.966;2022-10-18T09:30:30;15.57;;;9.05;;
71253;SDS011;59019;47.638;18.966;2022-10-18T09:33:30;16.02;;;8.30;;
71253;SDS011;59019;47.638;18.966;2022-10-18T09:36:04;12.60;;;8.00;;
71253;SDS011;59019;47.638;18.966;2022-10-18T09:38:37;15.13;;;8.43;;
71253;SDS011;59019;47.638;18.966;2022-10-18T09:41:14;17.13;;;8.52;;
71253;SDS011;59019;47.638;18.966;2022-10-18T09:43:46;13.77;;;8.93;;
71253;SDS011;59019;47.638;18.966;2022-10-18T09:46:17;15.77;;;8.82;;
71253;SDS011;59019;47.638;18.966;2022-10-18T09:48:47;18.05;;;8.77;;
71253;SDS011;59019;47.638;18.966;2022-10-18T09:51:17;12.80;;;8.10;;
71253;SDS011;59019;47.638;18.966;2022-10-18T09:56:16;15.82;;;8.23;;
71253;SDS011;59019;47.638;18.966;2022-10-18T09:58:47;16.55;;;8.65;;
71253;SDS011;59019;47.638;18.966;2022-10-18T10:01:17;13.07;;;8.55;;
71253;SDS011;59019;47.638;18.966;2022-10-18T10:03:45;15.10;;;8.30;;
71253;SDS011;59019;47.638;18.966;2022-10-18T10:08:40;16.87;;;8.60;;
71253;SDS011;59019;47.638;18.966;2022-10-18T10:13:57;12.38;;;7.95;;
71253;SDS011;59019;47.638;18.966;2022-10-18T10:16:32;13.97;;;7.93;;
71253;SDS011;59019;47.638;18.966;2022-10-18T10:19:07;16.05;;;8.77;;
71253;SDS011;59019;47.638;18.966;2022-10-18T10:21:41;13.85;;;8.80;;
71253;SDS011;59019;47.638;18.966;2022-10-18T10:24:13;14.87;;;7.90;;
71253;SDS011;59019;47.638;18.966;2022-10-18T10:27:03;16.10;;;7.85;;
71253;SDS011;59019;47.638;18.966;2022-10-18T10:32:15;11.80;;;6.90;;
71253;SDS011;59019;47.638;18.966;2022-10-18T10:34:42;14.30;;;8.02;;
71253;SDS011;59019;47.638;18.966;2022-10-18T10:37:23;13.13;;;8.03;;
71253;SDS011;59019;47.638;18.966;2022-10-18T10:45:24;11.35;;;5.90;;
71253;SDS011;59019;47.638;18.966;2022-10-18T10:47:52;10.40;;;5.30;;
71253;SDS011;59019;47.638;18.966;2022-10-18T10:50:27;9.53;;;4.30;;
71253;SDS011;59019;47.638;18.966;2022-10-18T10:52:53;14.70;;;4.45;;
71253;SDS011;59019;47.638;18.966;2022-10-18T10:55:27;11.65;;;5.82;;
71253;SDS011;59019;47.638;18.966;2022-10-18T10:57:58;8.65;;;4.80;;
71253;SDS011;59019;47.638;18.966;2022-10-18T11:00:34;8.57;;;4.40;;
71253;SDS011;59019;47.638;18.966;2022-10-18T11:03:20;8.13;;;4.30;;
71253;SDS011;59019;47.638;18.966;2022-10-18T11:05:51;8.75;;;4.18;;
71253;SDS011;59019;47.638;18.966;2022-10-18T11:08:26;8.15;;;4.20;;
71253;SDS011;59019;47.638;18.966;2022-10-18T11:13:44;6.77;;;3.90;;
71253;SDS011;59019;47.638;18.966;2022-10-18T11:19:39;8.57;;;3.88;;
71253;SDS011;59019;47.638;18.966;2022-10-18T11:22:08;11.82;;;6.60;;
71253;SDS011;59019;47.638;18.966;2022-10-18T11:24:40;7.35;;;4.20;;
71253;SDS011;59019;47.638;18.966;2022-10-18T11:27:47;8.50;;;4.23;;
71253;SDS011;59019;47.638;18.966;2022-10-18T11:33:04;11.87;;;4.33;;
71253;SDS011;59019;47.638;18.966;2022-10-18T11:35:51;9.23;;;4.90;;
71253;SDS011;59019;47.638;18.966;2022-10-18T11:38:43;12.70;;;4.55;;
71253;SDS011;59019;47.638;18.966;2022-10-18T11:41:37;9.10;;;4.65;;
71253;SDS011;59019;47.638;18.966;2022-10-18T11:49:52;6.88;;;4.05;;
71253;SDS011;59019;47.638;18.966;2022-10-18T11:52:32;8.98;;;4.22;;
71253;SDS011;59019;47.638;18.966;2022-10-18T11:55:48;8.05;;;3.70;;
71253;SDS011;59019;47.638;18.966;2022-10-18T12:01:14;7.80;;;4.03;;
71253;SDS011;59019;47.638;18.966;2022-10-18T12:06:56;8.57;;;4.10;;
71253;SDS011;59019;47.638;18.966;2022-10-18T12:12:14;10.35;;;4.03;;
71253;SDS011;59019;47.638;18.966;2022-10-18T12:17:27;6.18;;;3.80;;
71253;SDS011;59019;47.638;18.966;2022-10-18T12:20:04;8.52;;;3.80;;
71253;SDS011;59019;47.638;18.966;2022-10-18T12:25:11;7.35;;;4.38;;
71253;SDS011;59019;47.638;18.966;2022-10-18T12:27:39;8.43;;;4.30;;
71253;SDS011;59019;47.638;18.966;2022-10-18T12:30:13;8.10;;;4.28;;
71253;SDS011;59019;47.638;18.966;2022-10-18T12:32:48;8.93;;;4.00;;
71253;SDS011;59019;47.638;18.966;2022-10-18T12:35:19;7.57;;;4.32;;
71253;SDS011;59019;47.638;18.966;2022-10-18T12:38:12;9.98;;;4.03;;
71253;SDS011;59019;47.638;18.966;2022-10-18T12:40:48;11.02;;;4.20;;
71253;SDS011;59019;47.638;18.966;2022-10-18T12:43:19;7.68;;;4.00;;
71253;SDS011;59019;47.638;18.966;2022-10-18T12:45:56;11.00;;;4.80;;
71253;SDS011;59019;47.638;18.966;2022-10-18T12:51:11;9.02;;;4.78;;
71253;SDS011;59019;47.638;18.966;2022-10-18T12:53:39;7.87;;;4.20;;
71253;SDS011;59019;47.638;18.966;2022-10-18T13:09:27;6.15;;;3.63;;
71253;SDS011;59019;47.638;18.966;2022-10-18T13:14:37;6.15;;;3.80;;
71253;SDS011;59019;47.638;18.966;2022-10-18T13:20:22;7.73;;;4.23;;
71253;SDS011;59019;47.638;18.966;2022-10-18T13:29:08;6.25;;;3.75;;
71253;SDS011;59019;47.638;18.966;2022-10-18T13:34:52;7.88;;;3.80;;
71253;SDS011;59019;47.638;18.966;2022-10-18T13:37:22;8.50;;;4.25;;
71253;SDS011;59019;47.638;18.966;2022-10-18T13:39:49;7.15;;;3.60;;
71253;SDS011;59019;47.638;18.966;2022-10-18T13:42:35;8.83;;;4.03;;
71253;SDS011;59019;47.638;18.966;2022-10-18T13:50:52;9.30;;;5.60;;
71253;SDS011;59019;47.638;18.966;2022-10-18T13:53:31;12.20;;;6.88;;
71253;SDS011;59019;47.638;18.966;2022-10-18T14:01:54;9.70;;;5.70;;
71253;SDS011;59019;47.638;18.966;2022-10-18T14:07:23;6.88;;;3.40;;
71253;SDS011;59019;47.638;18.966;2022-10-18T14:09:51;9.15;;;3.83;;
71253;SDS011;59019;47.638;18.966;2022-10-18T14:12:25;8.38;;;3.70;;
71253;SDS011;59019;47.638;18.966;2022-10-18T14:15:09;11.38;;;3.83;;
71253;SDS011;59019;47.638;18.966;2022-10-18T14:17:45;8.97;;;3.73;;
71253;SDS011;59019;47.638;18.966;2022-10-18T14:20:31;8.63;;;3.90;;
71253;SDS011;59019;47.638;18.966;2022-10-18T14:23:11;8.35;;;3.65;;
71253;SDS011;59019;47.638;18.966;2022-10-18T14:25:43;9.90;;;4.68;;
71253;SDS011;59019;47.638;18.966;2022-10-18T14:28:19;7.75;;;3.50;;
71253;SDS011;59019;47.638;18.966;2022-10-18T14:30:51;11.00;;;6.80;;
71253;SDS011;59019;47.638;18.966;2022-10-18T14:33:33;10.88;;;4.00;;
71253;SDS011;59019;47.638;18.966;2022-10-18T14:36:00;15.45;;;9.57;;
71253;SDS011;59019;47.638;18.966;2022-10-18T14:38:26;19.92;;;11.75;;
71253;SDS011;59019;47.638;18.966;2022-10-18T14:43:37;11.13;;;3.80;;
71253;SDS011;59019;47.638;18.966;2022-10-18T14:46:09;12.43;;;5.78;;
71253;SDS011;59019;47.638;18.966;2022-10-18T14:48:40;8.82;;;5.70;;
71253;SDS011;59019;47.638;18.966;2022-10-18T14:51:06;7.50;;;3.80;;
71253;SDS011;59019;47.638;18.966;2022-10-18T14:53:36;8.63;;;4.00;;
71253;SDS011;59019;47.638;18.966;2022-10-18T14:56:03;13.07;;;3.75;;
71253;SDS011;59019;47.638;18.966;2022-10-18T14:58:31;12.97;;;3.90;;
71253;SDS011;59019;47.638;18.966;2022-10-18T15:01:02;16.50;;;4.15;;
71253;SDS011;59019;47.638;18.966;2022-10-18T15:03:30;9.07;;;3.83;;
71253;SDS011;59019;47.638;18.966;2022-10-18T15:05:59;10.70;;;3.20;;
71253;SDS011;59019;47.638;18.966;2022-10-18T15:08:45;8.53;;;3.70;;
71253;SDS011;59019;47.638;18.966;2022-10-18T15:11:13;10.50;;;3.73;;
71253;SDS011;59019;47.638;18.966;2022-10-18T15:13:43;18.02;;;3.92;;
71253;SDS011;59019;47.638;18.966;2022-10-18T15:16:16;12.75;;;3.70;;
71253;SDS011;59019;47.638;18.966;2022-10-18T15:18:42;10.55;;;3.17;;
71253;SDS011;59019;47.638;18.966;2022-10-18T15:21:22;8.20;;;3.60;;
71253;SDS011;59019;47.638;18.966;2022-10-18T15:23:49;9.15;;;3.30;;
71253;SDS011;59019;47.638;18.966;2022-10-18T15:26:34;10.00;;;3.70;;
71253;SDS011;59019;47.638;18.966;2022-10-18T15:28:59;8.43;;;3.50;;
71253;SDS011;59019;47.638;18.966;2022-10-18T15:31:27;8.27;;;3.47;;
71253;SDS011;59019;47.638;18.966;2022-10-18T15:34:14;19.15;;;4.13;;
71253;SDS011;59019;47.638;18.966;2022-10-18T15:36:52;11.80;;;3.85;;
71253;SDS011;59019;47.638;18.966;2022-10-18T15:39:23;16.50;;;5.22;;
71253;SDS011;59019;47.638;18.966;2022-10-18T15:41:52;19.15;;;7.88;;
71253;SDS011;59019;47.638;18.966;2022-10-18T15:44:26;27.95;;;10.38;;
71253;SDS011;59019;47.638;18.966;2022-10-18T15:54:45;16.00;;;8.13;;
71253;SDS011;59019;47.638;18.966;2022-10-18T15:57:11;14.82;;;8.15;;
71253;SDS011;59019;47.638;18.966;2022-10-18T15:59:39;16.90;;;8.57;;
71253;SDS011;59019;47.638;18.966;2022-10-18T16:02:17;23.15;;;13.05;;
71253;SDS011;59019;47.638;18.966;2022-10-18T16:04:43;11.15;;;6.55;;
71253;SDS011;59019;47.638;18.966;2022-10-18T16:07:10;12.88;;;5.95;;
71253;SDS011;59019;47.638;18.966;2022-10-18T16:09:36;12.47;;;5.30;;
71253;SDS011;59019;47.638;18.966;2022-10-18T16:12:01;11.73;;;5.03;;
71253;SDS011;59019;47.638;18.966;2022-10-18T16:14:28;14.65;;;6.10;;
71253;SDS011;59019;47.638;18.966;2022-10-18T16:16:55;13.00;;;5.60;;
71253;SDS011;59019;47.638;18.966;2022-10-18T16:19:25;13.80;;;5.05;;
71253;SDS011;59019;47.638;18.966;2022-10-18T16:21:51;8.98;;;4.25;;
71253;SDS011;59019;47.638;18.966;2022-10-18T16:24:17;16.17;;;9.87;;
71253;SDS011;59019;47.638;18.966;2022-10-18T16:26:43;9.98;;;6.43;;
71253;SDS011;59019;47.638;18.966;2022-10-18T16:29:10;10.93;;;5.23;;
71253;SDS011;59019;47.638;18.966;2022-10-18T16:31:38;8.95;;;4.80;;
71253;SDS011;59019;47.638;18.966;2022-10-18T16:34:04;9.20;;;5.07;;
71253;SDS011;59019;47.638;18.966;2022-10-18T16:36:30;16.10;;;5.80;;
71253;SDS011;59019;47.638;18.966;2022-10-18T16:38:57;12.93;;;5.53;;
71253;SDS011;59019;47.638;18.966;2022-10-18T16:41:26;15.25;;;6.10;;
71253;SDS011;59019;47.638;18.966;2022-10-18T16:43:52;14.17;;;5.77;;
71253;SDS011;59019;47.638;18.966;2022-10-18T16:46:19;12.10;;;5.80;;
71253;SDS011;59019;47.638;18.966;2022-10-18T16:48:54;12.07;;;6.10;;
71253;SDS011;59019;47.638;18.966;2022-10-18T16:51:20;13.47;;;6.07;;
71253;SDS011;59019;47.638;18.966;2022-10-18T16:53:46;10.33;;;5.53;;
71253;SDS011;59019;47.638;18.966;2022-10-18T16:56:16;12.63;;;5.50;;
71253;SDS011;59019;47.638;18.966;2022-10-18T16:58:43;10.13;;;5.10;;